createdAt,value
2018-04-12T00:00:49.864Z,98.60
2018-04-12T00:01:49.804Z,98.89
2018-04-12T00:02:49.685Z,98.41
2018-04-12T00:03:49.723Z,99.08
2018-04-12T00:04:49.512Z,98.60
2018-04-12T00:05:49.588Z,98.70
2018-04-12T00:06:49.372Z,98.51
2018-04-12T00:09:31.557Z,98.79
2018-04-12T00:10:31.533Z,99.08
2018-04-12T00:11:31.411Z,99.37
2018-04-12T00:12:31.445Z,99.37
2018-04-12T00:13:31.247Z,99.08
2018-04-12T00:14:31.250Z,98.60
2018-04-12T00:15:31.071Z,98.60
2018-04-12T00:16:31.101Z,99.37
2018-04-12T00:17:30.918Z,98.89
2018-04-12T00:18:30.973Z,99.46
2018-04-12T00:19:30.766Z,98.79
2018-04-12T00:20:30.781Z,99.46
2018-04-12T00:21:30.621Z,99.46
2018-04-12T00:22:30.595Z,98.89
2018-04-12T00:23:30.446Z,98.60
2018-04-12T00:24:30.399Z,98.51
2018-04-12T00:25:30.280Z,98.41
2018-04-12T00:26:30.340Z,98.89
2018-04-12T00:27:30.124Z,99.55
2018-04-12T00:28:30.117Z,99.41
2018-04-12T00:29:29.960Z,98.51
2018-04-12T00:30:29.922Z,98.85
2018-04-12T00:31:29.807Z,98.22
2018-04-12T00:32:29.863Z,98.75
2018-04-12T00:33:29.648Z,98.94
2018-04-12T00:34:29.644Z,98.85
2018-04-12T00:35:29.517Z,98.56
2018-04-12T00:36:29.454Z,98.27
2018-04-12T00:37:29.344Z,98.46
2018-04-12T00:38:29.371Z,98.46
2018-04-12T00:39:29.160Z,98.46
2018-04-12T00:40:29.174Z,99.04
2018-04-12T00:41:29.020Z,98.27
2018-04-12T00:42:29.013Z,97.99
2018-04-12T00:43:28.845Z,98.46
2018-04-12T00:44:28.887Z,98.08
2018-04-12T00:45:28.683Z,98.27
2018-04-12T00:46:28.700Z,98.80
2018-04-12T00:47:28.573Z,98.42
2018-04-12T00:48:28.507Z,98.32
2018-04-12T00:49:28.365Z,98.42
2018-04-12T00:50:28.431Z,98.42
2018-04-12T00:51:28.216Z,98.61
2018-04-12T00:52:28.268Z,98.42
2018-04-12T00:53:28.065Z,98.03
2018-04-12T00:54:28.041Z,98.42
2018-04-12T00:55:27.895Z,98.22
2018-04-12T00:56:27.842Z,98.61
2018-04-12T00:57:27.732Z,98.13
2018-04-12T00:58:27.783Z,98.94
2018-04-12T00:59:27.573Z,98.90
2018-04-12T01:00:27.586Z,98.90
2018-04-12T01:01:27.413Z,98.90
2018-04-12T01:02:27.370Z,98.70
2018-04-12T01:03:27.288Z,98.70
2018-04-12T01:04:27.411Z,98.70
2018-04-12T01:05:27.096Z,98.22
2018-04-12T01:06:27.613Z,99.18
2018-04-12T01:07:26.948Z,98.99
2018-04-12T01:08:26.930Z,98.32
2018-04-12T01:09:26.778Z,98.61
2018-04-12T01:10:26.815Z,98.51
2018-04-12T01:11:26.638Z,98.99
2018-04-12T01:12:26.623Z,98.80
2018-04-12T01:13:26.489Z,98.22
2018-04-12T01:14:26.660Z,98.61
2018-04-12T01:15:26.304Z,98.61
2018-04-12T01:16:26.339Z,98.80
2018-04-12T01:17:26.146Z,98.90
2018-04-12T01:18:26.143Z,98.42
2018-04-12T01:19:26.014Z,98.70
2018-04-12T01:22:08.068Z,98.51
2018-04-12T01:23:08.057Z,98.61
2018-04-12T01:24:07.917Z,98.42
2018-04-12T01:25:07.908Z,98.99
2018-04-12T01:26:07.756Z,98.51
2018-04-12T01:27:07.780Z,99.08
2018-04-12T01:28:07.595Z,98.90
2018-04-12T01:29:07.536Z,98.80
2018-04-12T01:30:07.449Z,98.80
2018-04-12T01:31:07.394Z,98.70
2018-04-12T01:32:07.283Z,98.65
2018-04-12T01:33:07.307Z,98.85
2018-04-12T01:34:07.123Z,98.85
2018-04-12T01:35:07.142Z,99.60
2018-04-12T01:36:06.956Z,99.80
2018-04-12T01:37:06.920Z,99.51
2018-04-12T01:38:06.802Z,99.37
2018-04-12T01:39:06.835Z,99.75
2018-04-12T01:40:06.677Z,99.56
2018-04-12T01:41:06.666Z,99.37
2018-04-12T01:42:06.490Z,99.51
2018-04-12T01:43:06.450Z,99.51
2018-04-12T01:44:06.376Z,99.22
2018-04-12T01:45:06.403Z,99.56
2018-04-12T01:46:06.169Z,99.46
2018-04-12T01:47:06.193Z,99.27
2018-04-12T01:48:06.013Z,99.75
2018-04-12T01:49:05.976Z,98.90
2018-04-12T01:50:05.861Z,98.99
2018-04-12T01:51:05.890Z,98.90
2018-04-12T01:52:05.686Z,99.56
2018-04-12T01:53:05.693Z,99.46
2018-04-12T01:54:05.525Z,99.37
2018-04-12T01:55:05.550Z,99.46
2018-04-12T01:56:05.367Z,99.41
2018-04-12T01:57:05.432Z,98.65
2018-04-12T01:58:05.210Z,99.60
2018-04-12T01:59:05.233Z,99.32
2018-04-12T02:00:05.078Z,99.60
2018-04-12T02:01:05.082Z,99.22
2018-04-12T02:02:04.912Z,99.41
2018-04-12T02:03:04.945Z,99.41
2018-04-12T02:04:04.732Z,99.22
2018-04-12T02:05:04.751Z,99.32
2018-04-12T02:06:04.600Z,99.41
2018-04-12T02:07:04.664Z,99.51
2018-04-12T02:08:04.423Z,99.51
2018-04-12T02:09:04.366Z,99.51
2018-04-12T02:10:04.270Z,99.70
2018-04-12T02:11:04.325Z,99.60
2018-04-12T02:12:04.098Z,99.37
2018-04-12T02:13:04.083Z,99.56
2018-04-12T02:14:03.938Z,99.41
2018-04-12T02:15:03.893Z,99.41
2018-04-12T02:16:03.792Z,99.60
2018-04-12T02:17:03.809Z,99.22
2018-04-12T02:18:03.626Z,99.60
2018-04-12T02:19:03.623Z,99.80
2018-04-12T02:20:03.479Z,99.41
2018-04-12T02:21:03.492Z,99.41
2018-04-12T02:22:03.322Z,99.80
2018-04-12T02:23:03.338Z,99.70
2018-04-12T02:24:03.139Z,99.80
2018-04-12T02:25:03.139Z,99.66
2018-04-12T02:26:03.002Z,99.60
2018-04-12T02:27:02.993Z,99.80
2018-04-12T02:28:02.821Z,99.51
2018-04-12T02:29:02.858Z,99.80
2018-04-12T02:30:02.663Z,99.85
2018-04-12T02:31:02.674Z,99.51
2018-04-12T02:32:02.523Z,99.41
2018-04-12T02:33:02.453Z,99.80
2018-04-12T02:34:02.340Z,99.60
2018-04-12T02:35:02.483Z,99.60
2018-04-12T02:36:02.185Z,99.41
2018-04-12T02:37:02.229Z,99.99
2018-04-12T02:38:02.021Z,99.75
2018-04-12T02:39:02.007Z,99.89
2018-04-12T02:40:01.867Z,99.89
2018-04-12T02:41:01.920Z,99.89
2018-04-12T02:42:01.708Z,99.60
2018-04-12T02:43:01.872Z,99.89
2018-04-12T02:44:01.543Z,99.75
2018-04-12T02:45:01.544Z,99.56
2018-04-12T02:46:01.389Z,99.85
2018-04-12T02:47:01.354Z,99.66
2018-04-12T02:48:01.251Z,99.75
2018-04-12T02:49:01.262Z,99.85
2018-04-12T02:50:01.073Z,99.56
2018-04-12T02:51:01.064Z,99.56
2018-04-12T02:52:00.912Z,99.95
2018-04-12T02:53:00.907Z,99.95
2018-04-12T02:54:00.770Z,99.70
2018-04-12T02:55:00.782Z,99.80
2018-04-12T02:56:00.596Z,99.60
2018-04-12T02:57:00.592Z,99.89
2018-04-12T02:58:00.451Z,99.51
2018-04-12T02:59:00.428Z,99.70
2018-04-12T03:00:00.264Z,99.99
2018-04-12T03:01:00.311Z,99.70
2018-04-12T03:02:00.122Z,99.89
2018-04-12T03:03:00.124Z,99.99
2018-04-12T03:03:59.984Z,99.99
2018-04-12T03:04:59.926Z,99.99
2018-04-12T03:05:59.797Z,99.99
2018-04-12T03:06:59.842Z,99.80
2018-04-12T03:07:59.640Z,99.80
2018-04-12T03:08:59.687Z,99.99
2018-04-12T03:09:59.470Z,99.60
2018-04-12T03:10:59.457Z,99.75
2018-04-12T03:11:59.316Z,99.89
2018-04-12T03:12:59.360Z,99.99
2018-04-12T03:13:59.170Z,99.99
2018-04-12T03:14:59.168Z,99.99
2018-04-12T03:15:59.023Z,99.99
2018-04-12T03:16:58.983Z,99.99
2018-04-12T03:17:58.840Z,99.99
2018-04-12T03:18:58.923Z,99.99
2018-04-12T03:19:58.670Z,99.99
2018-04-12T03:20:58.731Z,99.99
2018-04-12T03:21:58.524Z,99.99
2018-04-12T03:22:58.506Z,99.99
2018-04-12T03:23:58.365Z,99.99
2018-04-12T03:24:58.355Z,99.99
2018-04-12T03:25:58.238Z,99.99
2018-04-12T03:26:58.222Z,99.99
2018-04-12T03:27:58.041Z,99.99
2018-04-12T03:28:58.039Z,99.99
2018-04-12T03:29:57.898Z,99.99
2018-04-12T03:30:57.841Z,99.99
2018-04-12T03:31:57.722Z,99.99
2018-04-12T03:32:57.749Z,99.99
2018-04-12T03:33:57.568Z,99.99
2018-04-12T03:34:57.598Z,99.99
2018-04-12T03:35:57.407Z,99.99
2018-04-12T03:36:57.365Z,99.99
2018-04-12T03:37:57.248Z,99.99
2018-04-12T03:38:57.281Z,99.99
2018-04-12T03:39:57.115Z,99.99
2018-04-12T03:40:57.005Z,99.99
2018-04-12T03:41:56.982Z,99.99
2018-04-12T03:42:56.896Z,99.99
2018-04-12T03:43:56.766Z,99.99
2018-04-12T03:44:56.735Z,99.99
2018-04-12T03:45:56.600Z,99.99
2018-04-12T03:46:56.614Z,99.99
2018-04-12T03:47:56.442Z,99.99
2018-04-12T03:48:56.424Z,99.99
2018-04-12T03:49:56.306Z,99.99
2018-04-12T03:50:56.335Z,99.99
2018-04-12T03:51:56.150Z,99.99
2018-04-12T03:52:56.146Z,99.99
2018-04-12T03:53:55.972Z,99.99
2018-04-12T03:54:55.961Z,99.99
2018-04-12T03:55:55.821Z,99.99
2018-04-12T03:56:55.766Z,99.99
2018-04-12T03:57:55.656Z,99.99
2018-04-12T03:58:55.707Z,99.99
2018-04-12T03:59:55.487Z,99.99
2018-04-12T04:00:55.522Z,99.99
2018-04-12T04:01:55.331Z,99.99
2018-04-12T04:02:55.290Z,99.99
2018-04-12T04:03:55.174Z,99.99
2018-04-12T04:04:55.226Z,99.99
2018-04-12T04:05:55.025Z,99.99
2018-04-12T04:06:55.007Z,99.99
2018-04-12T04:07:54.845Z,99.99
2018-04-12T04:08:54.814Z,99.99
2018-04-12T04:09:54.709Z,99.99
2018-04-12T04:10:54.661Z,99.99
2018-04-12T04:11:54.530Z,99.99
2018-04-12T04:12:54.533Z,99.99
2018-04-12T04:13:54.376Z,99.99
2018-04-12T04:14:54.348Z,99.99
2018-04-12T04:15:54.231Z,99.99
2018-04-12T04:16:54.259Z,99.99
2018-04-12T04:17:54.186Z,99.60
2018-04-12T04:18:54.076Z,99.99
2018-04-12T04:19:53.891Z,99.99
2018-04-12T04:20:54.020Z,99.99
2018-04-12T04:21:53.730Z,99.99
2018-04-12T04:22:53.778Z,99.99
2018-04-12T04:23:53.578Z,99.99
2018-04-12T04:24:53.513Z,99.99
2018-04-12T04:25:53.430Z,99.99
2018-04-12T04:26:53.397Z,99.99
2018-04-12T04:27:53.248Z,99.99
2018-04-12T04:28:53.196Z,99.89
2018-04-12T04:29:53.097Z,99.99
2018-04-12T04:30:53.169Z,99.99
2018-04-12T04:31:52.953Z,99.99
2018-04-12T04:32:52.965Z,99.99
2018-04-12T04:33:52.779Z,99.99
2018-04-12T04:34:52.739Z,99.99
2018-04-12T04:35:52.612Z,99.99
2018-04-12T04:36:52.645Z,99.99
2018-04-12T04:37:52.479Z,99.99
2018-04-12T04:38:52.397Z,99.99
2018-04-12T04:39:52.336Z,99.99
2018-04-12T04:40:52.268Z,99.99
2018-04-12T04:41:52.156Z,99.99
2018-04-12T04:42:52.198Z,99.99
2018-04-12T04:43:51.973Z,99.99
2018-04-12T04:44:52.060Z,99.99
2018-04-12T04:45:51.817Z,99.99
2018-04-12T04:46:51.880Z,99.99
2018-04-12T04:47:51.805Z,99.99
2018-04-12T04:48:51.702Z,99.99
2018-04-12T04:49:51.502Z,99.99
2018-04-12T04:50:51.918Z,99.99
2018-04-12T04:51:51.370Z,99.99
2018-04-12T04:52:51.370Z,99.99
2018-04-12T04:53:51.173Z,99.99
2018-04-12T04:54:51.226Z,99.99
2018-04-12T04:55:51.025Z,99.99
2018-04-12T04:56:51.038Z,99.99
2018-04-12T04:57:50.862Z,99.99
2018-04-12T04:58:50.875Z,99.99
2018-04-12T04:59:50.704Z,99.99
2018-04-12T05:00:50.655Z,99.99
2018-04-12T05:01:50.542Z,99.99
2018-04-12T05:02:50.592Z,99.99
2018-04-12T05:03:50.405Z,99.99
2018-04-12T05:04:50.376Z,99.99
2018-04-12T05:05:50.227Z,99.99
2018-04-12T05:06:50.177Z,99.99
2018-04-12T05:07:50.068Z,99.99
2018-04-12T05:08:50.141Z,99.99
2018-04-12T05:09:49.919Z,99.99
2018-04-12T05:10:49.930Z,99.99
2018-04-12T05:11:49.735Z,99.99
2018-04-12T05:12:49.677Z,99.99
2018-04-12T05:13:49.602Z,99.99
2018-04-12T05:14:49.625Z,99.99
2018-04-12T05:15:49.423Z,99.99
2018-04-12T05:16:49.431Z,99.99
2018-04-12T05:17:49.262Z,99.99
2018-04-12T05:18:49.268Z,99.99
2018-04-12T05:19:49.105Z,99.99
2018-04-12T05:20:49.042Z,99.99
2018-04-12T05:21:48.937Z,99.99
2018-04-12T05:22:48.949Z,99.99
2018-04-12T05:23:48.832Z,99.99
2018-04-12T05:24:48.766Z,99.99
2018-04-12T05:25:48.656Z,99.99
2018-04-12T05:26:48.686Z,99.99
2018-04-12T05:27:48.510Z,99.99
2018-04-12T05:28:48.523Z,99.99
2018-04-12T05:29:48.323Z,99.80
2018-04-12T05:30:48.328Z,99.89
2018-04-12T05:31:48.148Z,99.99
2018-04-12T05:32:48.099Z,99.75
2018-04-12T05:33:48.012Z,99.99
2018-04-12T05:34:48.002Z,99.99
2018-04-12T05:35:47.829Z,99.99
2018-04-12T05:36:47.818Z,99.99
2018-04-12T05:37:47.671Z,99.99
2018-04-12T05:38:47.658Z,99.99
2018-04-12T05:39:47.512Z,99.99
2018-04-12T05:40:47.546Z,99.66
2018-04-12T05:41:47.367Z,99.46
2018-04-12T05:42:47.348Z,99.56
2018-04-12T05:43:47.242Z,99.95
2018-04-12T05:44:47.187Z,99.85
2018-04-12T05:45:47.033Z,99.85
2018-04-12T05:46:47.061Z,99.46
2018-04-12T05:47:46.897Z,99.66
2018-04-12T05:48:46.875Z,99.56
2018-04-12T05:49:46.727Z,99.66
2018-04-12T05:50:46.677Z,99.46
2018-04-12T05:51:46.545Z,99.66
2018-04-12T05:52:46.530Z,99.66
2018-04-12T05:53:46.392Z,99.80
2018-04-12T05:54:46.408Z,98.94
2018-04-12T05:55:46.251Z,98.85
2018-04-12T05:56:46.211Z,98.94
2018-04-12T05:57:46.077Z,99.04
2018-04-12T05:58:46.066Z,99.04
2018-04-12T05:59:45.922Z,99.13
2018-04-12T06:00:45.960Z,99.04
2018-04-12T06:01:45.760Z,98.94
2018-04-12T06:02:45.750Z,99.04
2018-04-12T06:03:45.610Z,99.28
2018-04-12T06:04:45.640Z,99.57
2018-04-12T06:05:45.457Z,99.13
2018-04-12T06:06:45.457Z,99.04
2018-04-12T06:07:45.277Z,98.71
2018-04-12T06:08:45.265Z,98.61
2018-04-12T06:09:45.133Z,98.61
2018-04-12T06:10:45.121Z,98.52
2018-04-12T06:11:44.976Z,98.99
2018-04-12T06:12:45.019Z,98.52
2018-04-12T06:13:44.813Z,98.99
2018-04-12T06:14:44.802Z,98.13
2018-04-12T06:15:44.651Z,98.13
2018-04-12T06:16:44.595Z,98.61
2018-04-12T06:17:44.479Z,98.13
2018-04-12T06:18:44.435Z,98.18
2018-04-12T06:19:44.339Z,98.18
2018-04-12T06:20:44.323Z,98.13
2018-04-12T06:21:44.205Z,98.13
2018-04-12T06:22:44.136Z,98.18
2018-04-12T06:23:44.007Z,97.89
2018-04-12T06:24:44.055Z,97.89
2018-04-12T06:25:43.883Z,97.52
2018-04-12T06:26:43.893Z,97.18
2018-04-12T06:27:43.693Z,97.56
2018-04-12T06:28:43.674Z,97.28
2018-04-12T06:29:43.549Z,96.61
2018-04-12T06:30:43.591Z,96.75
2018-04-12T06:31:43.419Z,97.52
2018-04-12T06:32:43.374Z,96.94
2018-04-12T06:33:43.236Z,97.32
2018-04-12T06:34:43.180Z,97.23
2018-04-12T06:35:43.087Z,97.71
2018-04-12T06:36:43.143Z,97.23
2018-04-12T06:37:42.915Z,98.08
2018-04-12T06:38:42.909Z,97.32
2018-04-12T06:39:42.746Z,98.08
2018-04-12T06:40:42.719Z,97.32
2018-04-12T06:41:42.610Z,97.61
2018-04-12T06:42:42.676Z,97.52
2018-04-12T06:43:42.432Z,97.80
2018-04-12T06:44:42.428Z,97.89
2018-04-12T06:45:42.285Z,97.13
2018-04-12T06:46:42.267Z,97.18
2018-04-12T06:47:42.155Z,97.61
2018-04-12T06:48:42.153Z,97.32
2018-04-12T06:49:41.968Z,97.03
2018-04-12T06:50:41.957Z,97.23
2018-04-12T06:51:41.805Z,97.32
2018-04-12T06:52:41.814Z,97.03
2018-04-12T06:53:41.667Z,96.89
2018-04-12T06:54:41.678Z,96.99
2018-04-12T06:55:41.495Z,96.61
2018-04-12T06:56:41.497Z,96.80
2018-04-12T06:57:41.357Z,96.89
2018-04-12T06:58:41.292Z,96.13
2018-04-12T06:59:41.169Z,95.84
2018-04-12T07:00:41.201Z,96.22
2018-04-12T07:01:41.042Z,96.13
2018-04-12T07:02:41.056Z,95.75
2018-04-12T07:03:40.882Z,95.94
2018-04-12T07:04:41.715Z,96.18
2018-04-12T07:05:40.709Z,96.08
2018-04-12T07:06:40.743Z,95.79
2018-04-12T07:07:40.576Z,95.41
2018-04-12T07:08:40.558Z,95.12
2018-04-12T07:09:40.407Z,95.22
2018-04-12T07:10:40.349Z,95.98
2018-04-12T07:11:40.247Z,95.17
2018-04-12T07:12:40.260Z,95.36
2018-04-12T07:13:40.132Z,96.13
2018-04-12T07:14:40.089Z,96.61
2018-04-12T07:15:39.924Z,96.32
2018-04-12T07:16:39.885Z,96.84
2018-04-12T07:17:39.768Z,96.75
2018-04-12T07:18:39.831Z,97.13
2018-04-12T07:19:39.633Z,98.28
2018-04-12T07:20:39.593Z,97.89
2018-04-12T07:21:39.440Z,97.37
2018-04-12T07:22:39.406Z,97.66
2018-04-12T07:23:39.315Z,96.75
2018-04-12T07:24:39.325Z,95.79
2018-04-12T07:25:39.139Z,95.03
2018-04-12T07:26:39.138Z,95.41
2018-04-12T07:27:39.006Z,95.84
2018-04-12T07:28:38.983Z,94.31
2018-04-12T07:29:38.834Z,94.02
2018-04-12T07:30:38.853Z,94.12
2018-04-12T07:31:38.667Z,93.93
2018-04-12T07:32:38.812Z,93.93
2018-04-12T07:33:38.801Z,93.93
2018-04-12T07:34:38.587Z,94.46
2018-04-12T07:35:38.357Z,94.84
2018-04-12T07:36:38.430Z,95.12
2018-04-12T07:37:38.197Z,94.93
2018-04-12T07:38:38.177Z,95.32
2018-04-12T07:39:38.081Z,95.03
2018-04-12T07:40:38.000Z,95.07
2018-04-12T07:41:37.880Z,95.70
2018-04-12T07:44:20.197Z,95.84
2018-04-12T07:45:20.272Z,95.84
2018-04-12T07:46:20.013Z,95.46
2018-04-12T07:47:19.957Z,96.13
2018-04-12T07:48:19.900Z,95.75
2018-04-12T07:49:19.826Z,96.70
2018-04-12T07:50:19.774Z,96.66
2018-04-12T07:51:19.728Z,96.89
2018-04-12T07:52:19.539Z,96.84
2018-04-12T07:53:19.644Z,97.42
2018-04-12T07:54:19.416Z,96.80
2018-04-12T07:55:19.394Z,97.08
2018-04-12T07:56:19.350Z,96.89
2018-04-12T07:57:19.274Z,96.80
2018-04-12T07:58:19.063Z,96.99
2018-04-12T07:59:19.008Z,97.03
2018-04-12T08:00:18.931Z,96.89
2018-04-12T08:01:18.885Z,97.18
2018-04-12T08:02:18.775Z,97.56
2018-04-12T08:03:18.705Z,97.56
2018-04-12T08:04:18.728Z,97.37
2018-04-12T08:05:18.559Z,97.56
2018-04-12T08:06:18.452Z,97.47
2018-04-12T08:07:18.370Z,97.56
2018-04-12T08:08:18.272Z,96.89
2018-04-12T08:09:18.319Z,97.08
2018-04-12T08:10:18.108Z,96.80
2018-04-12T08:11:18.172Z,97.08
2018-04-12T08:12:17.949Z,96.99
2018-04-12T08:13:17.936Z,96.80
2018-04-12T08:14:17.811Z,96.89
2018-04-12T08:15:17.845Z,96.99
2018-04-12T08:16:17.846Z,96.42
2018-04-12T08:17:17.680Z,97.08
2018-04-12T08:18:17.498Z,96.89
2018-04-12T08:19:18.249Z,96.89
2018-04-12T08:20:17.333Z,96.89
2018-04-12T08:21:17.319Z,96.89
2018-04-12T08:22:17.174Z,97.56
2018-04-12T08:23:17.179Z,96.89
2018-04-12T08:24:17.025Z,96.89
2018-04-12T08:25:16.992Z,97.18
2018-04-12T08:26:16.898Z,96.99
2018-04-12T08:27:16.903Z,96.80
2018-04-12T08:28:16.697Z,96.89
2018-04-12T08:29:16.717Z,97.75
2018-04-12T08:30:16.545Z,97.28
2018-04-12T08:31:16.564Z,96.89
2018-04-12T08:32:16.527Z,96.61
2018-04-12T08:33:16.441Z,96.89
2018-04-12T08:34:16.232Z,96.70
2018-04-12T08:35:16.295Z,97.37
2018-04-12T08:36:16.103Z,97.47
2018-04-12T08:37:16.604Z,97.56
2018-04-12T08:38:15.953Z,97.18
2018-04-12T08:40:58.205Z,97.42
2018-04-12T08:41:58.206Z,97.18
2018-04-12T08:42:58.043Z,97.42
2018-04-12T08:43:58.077Z,98.23
2018-04-12T08:44:57.896Z,98.13
2018-04-12T08:45:57.911Z,97.89
2018-04-12T08:46:57.700Z,98.08
2018-04-12T08:47:57.719Z,98.13
2018-04-12T08:48:57.548Z,97.47
2018-04-12T08:49:57.607Z,97.08
2018-04-12T08:50:57.390Z,97.08
2018-04-12T08:51:57.443Z,97.75
2018-04-12T08:52:57.277Z,97.18
2018-04-12T08:53:57.220Z,97.37
2018-04-12T08:54:57.107Z,98.13
2018-04-12T08:55:57.045Z,98.13
2018-04-12T08:56:56.931Z,97.47
2018-04-12T08:57:57.063Z,97.47
2018-04-12T08:58:56.770Z,97.85
2018-04-12T08:59:56.748Z,98.13
2018-04-12T09:00:56.607Z,97.47
2018-04-12T09:01:56.589Z,97.47
2018-04-12T09:02:56.448Z,97.47
2018-04-12T09:03:56.466Z,97.08
2018-04-12T09:04:57.208Z,97.52
2018-04-12T09:05:56.273Z,97.52
2018-04-12T09:06:56.140Z,97.13
2018-04-12T09:07:56.222Z,96.32
2018-04-12T09:08:55.992Z,95.65
2018-04-12T09:09:55.992Z,95.41
2018-04-12T09:10:55.900Z,94.84
2018-04-12T09:11:55.791Z,94.84
2018-04-12T09:12:55.673Z,94.07
2018-04-12T09:13:55.799Z,94.36
2018-04-12T09:14:55.563Z,94.79
2018-04-12T09:15:55.514Z,94.31
2018-04-12T09:16:55.407Z,93.74
2018-04-12T09:17:55.404Z,93.69
2018-04-12T09:18:55.186Z,93.78
2018-04-12T09:19:55.155Z,92.92
2018-04-12T09:20:55.035Z,93.11
2018-04-12T09:21:55.047Z,92.82
2018-04-12T09:22:54.872Z,91.91
2018-04-12T09:23:54.875Z,91.29
2018-04-12T09:24:54.727Z,91.91
2018-04-12T09:25:54.780Z,91.82
2018-04-12T09:26:54.563Z,91.19
2018-04-12T09:27:54.581Z,90.37
2018-04-12T09:28:54.411Z,89.22
2018-04-12T09:29:54.411Z,89.26
2018-04-12T09:30:54.251Z,88.06
2018-04-12T09:31:54.180Z,87.24
2018-04-12T09:32:54.096Z,87.34
2018-04-12T09:33:54.096Z,86.71
2018-04-12T09:34:53.964Z,86.85
2018-04-12T09:35:53.900Z,86.91
2018-04-12T09:36:53.796Z,86.61
2018-04-12T09:37:53.816Z,86.36
2018-04-12T09:38:53.623Z,86.13
2018-04-12T09:39:53.678Z,85.44
2018-04-12T09:40:53.501Z,83.42
2018-04-12T09:41:53.434Z,83.86
2018-04-12T09:42:53.325Z,84.54
2018-04-12T09:43:53.377Z,83.96
2018-04-12T09:44:53.189Z,84.25
2018-04-12T09:45:53.158Z,84.16
2018-04-12T09:46:53.021Z,83.29
2018-04-12T09:47:53.192Z,83.42
2018-04-12T09:48:52.873Z,81.63
2018-04-12T09:49:52.964Z,80.87
2018-04-12T09:50:52.751Z,79.46
2018-04-12T09:51:52.688Z,77.58
2018-04-12T09:52:52.579Z,76.26
2018-04-12T09:53:52.596Z,74.91
2018-04-12T09:54:52.425Z,74.62
2018-04-12T09:55:52.394Z,73.53
2018-04-12T09:56:52.299Z,75.93
2018-04-12T09:57:52.326Z,76.23
2018-04-12T09:58:52.163Z,76.23
2018-04-12T09:59:52.171Z,75.49
2018-04-12T10:00:51.992Z,72.44
2018-04-12T10:01:52.076Z,73.11
2018-04-12T10:02:51.866Z,73.57
2018-04-12T10:03:51.853Z,72.79
2018-04-12T10:04:51.713Z,72.99
2018-04-12T10:05:51.696Z,73.72
2018-04-12T10:06:51.573Z,73.24
2018-04-12T10:07:51.580Z,74.13
2018-04-12T10:08:51.433Z,77.26
2018-04-12T10:09:51.488Z,78.08
2018-04-12T10:10:51.293Z,77.78
2018-04-12T10:11:51.287Z,79.67
2018-04-12T10:12:51.130Z,80.84
2018-04-12T10:13:51.113Z,81.90
2018-04-12T10:14:50.980Z,82.04
2018-04-12T10:15:51.026Z,80.54
2018-04-12T10:16:50.822Z,77.83
2018-04-12T10:17:50.814Z,75.55
2018-04-12T10:18:50.701Z,75.20
2018-04-12T10:19:50.714Z,71.90
2018-04-12T10:20:50.560Z,71.77
2018-04-12T10:21:50.521Z,71.38
2018-04-12T10:22:50.401Z,70.54
2018-04-12T10:23:50.443Z,71.09
2018-04-12T10:24:50.257Z,72.25
2018-04-12T10:25:50.278Z,71.58
2018-04-12T10:26:50.110Z,72.15
2018-04-12T10:27:50.145Z,73.66
2018-04-12T10:28:50.778Z,76.44
2018-04-12T10:29:49.920Z,76.86
2018-04-12T10:30:49.870Z,76.34
2018-04-12T10:31:49.872Z,76.09
2018-04-12T10:32:49.733Z,75.03
2018-04-12T10:33:49.686Z,76.76
2018-04-12T10:34:49.574Z,76.18
2018-04-12T10:35:49.621Z,76.25
2018-04-12T10:36:49.401Z,79.15
2018-04-12T10:37:49.510Z,82.05
2018-04-12T10:38:49.250Z,83.74
2018-04-12T10:39:49.473Z,84.89
2018-04-12T10:40:49.099Z,84.94
2018-04-12T10:41:49.107Z,83.92
2018-04-12T10:42:48.960Z,83.39
2018-04-12T10:43:48.921Z,82.52
2018-04-12T10:44:48.830Z,82.09
2018-04-12T10:45:48.845Z,81.84
2018-04-12T10:46:48.729Z,81.88
2018-04-12T10:47:48.639Z,79.38
2018-04-12T10:48:48.533Z,78.81
2018-04-12T10:49:48.550Z,78.81
2018-04-12T10:50:48.382Z,79.03
2018-04-12T10:51:48.403Z,78.17
2018-04-12T10:52:48.241Z,78.17
2018-04-12T10:53:48.282Z,79.38
2018-04-12T10:54:48.068Z,81.23
2018-04-12T10:55:48.086Z,82.29
2018-04-12T10:56:48.002Z,81.56
2018-04-12T10:57:47.908Z,82.14
2018-04-12T10:58:47.792Z,81.56
2018-04-12T10:59:47.802Z,81.79
2018-04-12T11:00:47.743Z,80.96
2018-04-12T11:01:47.655Z,80.48
2018-04-12T11:02:47.488Z,80.35
2018-04-12T11:03:47.517Z,81.21
2018-04-12T11:04:47.349Z,82.04
2018-04-12T11:05:47.473Z,82.96
2018-04-12T11:06:47.220Z,83.92
2018-04-12T11:07:47.205Z,83.83
2018-04-12T11:08:47.060Z,83.92
2018-04-12T11:09:47.044Z,82.96
2018-04-12T11:10:46.902Z,82.67
2018-04-12T11:11:46.857Z,83.73
2018-04-12T11:12:46.757Z,83.01
2018-04-12T11:13:46.786Z,83.53
2018-04-12T11:14:46.632Z,83.25
2018-04-12T11:15:46.572Z,81.99
2018-04-12T11:16:46.488Z,83.34
2018-04-12T11:17:46.520Z,83.34
2018-04-12T11:18:46.353Z,83.29
2018-04-12T11:19:46.349Z,81.83
2018-04-12T11:20:46.173Z,77.03
2018-04-12T11:21:46.089Z,72.80
2018-04-12T11:22:46.033Z,67.46
2018-04-12T11:23:46.072Z,66.91
2018-04-12T11:24:45.935Z,65.08
2018-04-12T11:25:45.832Z,63.85
2018-04-12T11:26:45.720Z,62.53
2018-04-12T11:27:45.776Z,60.88
2018-04-12T11:28:45.588Z,62.50
2018-04-12T11:29:45.559Z,65.63
2018-04-12T11:30:45.403Z,66.66
2018-04-12T11:31:45.459Z,66.59
2018-04-12T11:32:45.345Z,64.89
2018-04-12T11:33:45.267Z,64.66
2018-04-12T11:34:45.159Z,64.37
2018-04-12T11:35:45.184Z,63.43
2018-04-12T11:36:44.989Z,63.14
2018-04-12T11:37:45.161Z,62.79
2018-04-12T11:38:44.867Z,63.21
2018-04-12T11:39:44.928Z,64.53
2018-04-12T11:40:44.709Z,66.59
2018-04-12T11:41:44.712Z,68.01
2018-04-12T11:42:44.599Z,70.38
2018-04-12T11:43:44.647Z,72.56
2018-04-12T11:44:44.434Z,74.01
2018-04-12T11:45:44.387Z,74.71
2018-04-12T11:46:44.281Z,75.57
2018-04-12T11:49:26.329Z,75.23
2018-04-12T11:50:26.220Z,74.20
2018-04-12T11:51:26.127Z,73.33
2018-04-12T11:52:26.148Z,72.50
2018-04-12T11:53:26.166Z,72.12
2018-04-12T11:54:26.015Z,72.27
2018-04-12T11:55:25.824Z,74.45
2018-04-12T11:56:25.862Z,75.51
2018-04-12T11:57:25.666Z,75.90
2018-04-12T11:58:25.663Z,75.99
2018-04-12T11:59:25.537Z,76.96
2018-04-12T12:00:25.570Z,76.06
2018-04-12T12:01:25.380Z,77.31
2018-04-12T12:02:25.384Z,76.25
2018-04-12T12:03:25.247Z,76.18
2018-04-12T12:04:25.228Z,76.09
2018-04-12T12:05:25.089Z,75.84
2018-04-12T12:06:25.118Z,74.65
2018-04-12T12:07:24.949Z,73.82
2018-04-12T12:08:24.932Z,73.14
2018-04-12T12:09:24.826Z,74.20
2018-04-12T12:10:24.815Z,74.78
2018-04-12T12:11:24.659Z,74.78
2018-04-12T12:12:24.661Z,75.03
2018-04-12T12:13:24.507Z,75.32
2018-04-12T12:14:24.690Z,74.68
2018-04-12T12:15:24.385Z,73.91
2018-04-12T12:16:24.354Z,73.78
2018-04-12T12:17:24.219Z,77.92
2018-04-12T12:18:24.259Z,77.53
2018-04-12T12:19:24.103Z,76.13
2018-04-12T12:20:24.103Z,76.55
2018-04-12T12:21:23.914Z,76.23
2018-04-12T12:22:23.924Z,75.74
2018-04-12T12:23:23.767Z,76.42
2018-04-12T12:24:23.784Z,75.65
2018-04-12T12:25:23.636Z,76.71
2018-04-12T12:26:23.658Z,75.65
2018-04-12T12:27:23.488Z,76.09
2018-04-12T12:28:23.511Z,75.99
2018-04-12T12:29:23.323Z,75.65
2018-04-12T12:30:23.364Z,76.23
2018-04-12T12:31:23.183Z,75.01
2018-04-12T12:32:23.236Z,76.45
2018-04-12T12:33:23.068Z,74.49
2018-04-12T12:34:23.041Z,75.42
2018-04-12T12:35:22.897Z,76.09
2018-04-12T12:36:22.839Z,77.06
2018-04-12T12:37:22.848Z,77.88
2018-04-12T12:38:22.749Z,79.13
2018-04-12T12:39:22.586Z,79.03
2018-04-12T12:40:22.624Z,79.46
2018-04-12T12:41:22.457Z,80.62
2018-04-12T12:42:22.466Z,79.75
2018-04-12T12:43:22.298Z,77.48
2018-04-12T12:44:22.274Z,76.96
2018-04-12T12:45:22.141Z,77.00
2018-04-12T12:46:22.231Z,76.90
2018-04-12T12:47:21.986Z,76.42
2018-04-12T12:48:21.998Z,76.09
2018-04-12T12:49:21.861Z,76.32
2018-04-12T12:50:21.849Z,76.42
2018-04-12T12:51:21.721Z,77.21
2018-04-12T12:52:21.711Z,77.31
2018-04-12T12:53:21.559Z,76.73
2018-04-12T12:54:21.528Z,77.63
2018-04-12T12:55:21.394Z,76.48
2018-04-12T12:56:21.392Z,78.40
2018-04-12T12:57:21.286Z,78.59
2018-04-12T12:58:21.241Z,77.38
2018-04-12T12:59:21.125Z,77.48
2018-04-12T13:00:21.039Z,76.84